Terminal Aerodrome Forecast
Issued by NWS Wilmington, OH

Current Version | Previous Version | Text Only | Print | Product List | Glossary Off
Versions: 1 2 3 4 5 6 7 8 9 10 11 12 13 14 15

000
FTUS41 KILN 290527
TAFILN
TAF
KILN 290527Z 2906/3006 18005KT P6SM BKN250
     FM290900 19007KT P6SM BKN250 WS020/23035KT
     FM291300 20011KT P6SM BKN250
     FM291600 22014G22KT P6SM SCT040 SCT250
     FM300000 21010KT P6SM BKN250=

USA.gov is the U.S. government's official web portal to all federal, state and local government web resources and services.